Time;durP1;ratioP1;P1;durP2;ratioP2;P2;SDS_P1;SDS_P2;PMS_P1;PMS_P2;Temp;Humidity;BMP_temperature;BMP_pressure;BME280_temperature;BME280_humidity;BME280_pressure;Samples;Min_cycle;Max_cycle;Signal;HPM_P1;HPM_P2
2021/01/20 00:04:44;;;;;;;243.48;116.75;;;141.00;2176.00;;;;;;4818511;29;20052;-79
2021/01/20 00:14:33;;;;;;;192.77;96.43;;;141.00;2176.00;;;;;;4755749;30;20069;-78
2021/01/20 00:18:14;;;;;;;258.92;125.10;;;141.00;2176.00;;;;;;4771674;29;20063;-79
2021/01/20 00:35:24;;;;;;;491.92;248.23;;;141.00;2176.00;;;;;;4815266;29;20034;-82
2021/01/20 00:38:53;;;;;;;531.05;264.13;;;141.10;2176.00;;;;;;4805499;29;20070;-80
2021/01/20 00:41:51;;;;;;;512.83;262.50;;;140.80;2176.00;;;;;;4797738;29;20034;-78
2021/01/20 00:45:33;;;;;;;436.00;213.07;;;140.80;2176.00;;;;;;4811846;29;20103;-77
2021/01/20 00:48:33;;;;;;;386.55;193.63;;;116.10;2176.00;;;;;;4783414;29;20038;-77
2021/01/20 00:59:05;;;;;;;171.70;85.78;;;141.10;2176.00;;;;;;4759318;30;20062;-78
2021/01/20 01:06:08;;;;;;;161.80;89.88;;;141.10;2176.00;;;;;;4850057;29;20537;-79
2021/01/20 01:09:46;;;;;;;197.13;95.53;;;141.00;2176.00;;;;;;4767947;30;20077;-80
2021/01/20 01:13:19;;;;;;;160.07;77.95;;;141.10;2176.00;;;;;;4777368;30;20036;-79
2021/01/20 01:20:17;;;;;;;213.23;103.25;;;141.20;2176.00;;;;;;4760512;30;20102;-79
2021/01/20 01:23:46;;;;;;;162.68;85.20;;;141.30;2176.00;;;;;;4750889;30;20126;-79
2021/01/20 01:27:28;;;;;;;194.27;99.00;;;141.50;2176.00;;;;;;4760371;30;20048;-79
2021/01/20 01:41:16;;;;;;;180.70;87.13;;;141.30;2176.00;;;;;;4773665;30;20050;-81
2021/01/20 01:45:00;;;;;;;152.20;78.28;;;141.30;2176.00;;;;;;4727763;30;20025;-79
2021/01/20 01:51:39;;;;;;;127.75;64.15;;;141.50;2176.00;;;;;;4707413;30;20052;-79
2021/01/20 01:54:48;;;;;;;124.97;63.42;;;141.50;2176.00;;;;;;4709259;30;20575;-80
2021/01/20 02:08:53;;;;;;;142.87;74.27;;;141.30;2176.00;;;;;;4745842;30;20109;-81
2021/01/20 02:12:19;;;;;;;136.75;70.03;;;141.20;2176.00;;;;;;4715762;30;20266;-79
2021/01/20 02:15:44;;;;;;;163.15;82.78;;;141.20;2176.00;;;;;;4668116;30;20071;-79
2021/01/20 02:23:01;;;;;;;146.13;78.05;;;141.10;2176.00;;;;;;4718208;30;20076;-79
2021/01/20 02:26:36;;;;;;;161.63;80.43;;;141.20;2176.00;;;;;;4771015;30;20621;-79
2021/01/20 02:30:25;;;;;;;155.68;80.10;;;141.00;2176.00;;;;;;4785038;30;20481;-79
2021/01/20 02:37:49;;;;;;;153.55;76.00;;;141.00;2176.00;;;;;;4724993;30;20094;-79
2021/01/20 02:55:02;;;;;;;181.40;83.80;;;141.20;2176.00;;;;;;4731237;30;20067;-81
2021/01/20 02:58:15;;;;;;;186.75;85.65;;;141.30;2176.00;;;;;;4736235;30;20123;-79
2021/01/20 03:01:57;;;;;;;191.65;84.18;;;141.30;2176.00;;;;;;4723496;30;20119;-79
2021/01/20 03:05:33;;;;;;;167.40;78.32;;;141.40;2176.00;;;;;;4740736;30;20060;-81
2021/01/20 03:08:51;;;;;;;139.95;66.03;;;141.40;2176.00;;;;;;4704961;30;20486;-80
2021/01/20 03:15:42;;;;;;;175.45;81.60;;;141.40;2176.00;;;;;;4730006;30;20067;-81
2021/01/20 03:39:57;;;;;;;204.48;98.45;;;141.00;2176.00;;;;;;4774253;30;20070;-79
2021/01/20 03:46:49;;;;;;;201.18;96.47;;;141.10;2176.00;;;;;;4764030;30;20081;-79
2021/01/20 04:04:05;;;;;;;145.45;73.28;;;141.20;2176.00;;;;;;4764763;30;20066;-79
2021/01/20 04:07:33;;;;;;;130.13;66.43;;;141.30;2176.00;;;;;;4700020;30;20099;-79
2021/01/20 04:11:15;;;;;;;151.25;73.63;;;141.20;2176.00;;;;;;4695093;30;20046;-79
2021/01/20 04:14:27;;;;;;;172.68;87.75;;;141.10;2176.00;;;;;;4712671;30;20062;-79
2021/01/20 04:24:56;;;;;;;165.52;83.43;;;141.10;2176.00;;;;;;4709612;30;20048;-79
2021/01/20 04:28:41;;;;;;;138.55;71.65;;;141.20;2176.00;;;;;;4763956;29;20420;-80
2021/01/20 04:35:47;;;;;;;100.68;53.47;;;141.30;2176.00;;;;;;4745700;30;20594;-81
2021/01/20 04:39:37;;;;;;;105.35;56.25;;;141.40;2176.00;;;;;;4826015;29;20086;-79
2021/01/20 04:46:52;;;;;;;175.65;88.05;;;141.30;2176.00;;;;;;4786768;30;20046;-79
2021/01/20 04:53:32;;;;;;;158.80;80.78;;;141.30;2176.00;;;;;;4790963;30;20073;-80
2021/01/20 04:57:11;;;;;;;137.82;72.53;;;141.30;2176.00;;;;;;4798075;30;20035;-80
2021/01/20 05:00:12;;;;;;;244.35;106.05;;;141.30;2176.00;;;;;;4726283;30;20575;-79
2021/01/20 05:04:12;;;;;;;137.63;71.53;;;141.20;2176.00;;;;;;4732615;30;20584;-78
2021/01/20 05:07:17;;;;;;;145.80;77.80;;;141.30;2176.00;;;;;;4725467;30;20478;-79
2021/01/20 05:10:15;;;;;;;180.60;91.63;;;141.30;2176.00;;;;;;4749085;30;20123;-79
2021/01/20 05:13:38;;;;;;;163.75;82.88;;;141.20;2176.00;;;;;;4744667;30;20441;-79
2021/01/20 05:27:21;;;;;;;141.38;72.40;;;141.10;2176.00;;;;;;4781310;30;20484;-80
2021/01/20 05:31:00;;;;;;;117.13;62.28;;;141.20;2176.00;;;;;;4766472;30;20071;-79
2021/01/20 05:48:46;;;;;;;205.73;111.05;;;140.80;2176.00;;;;;;4907480;29;20489;-80
2021/01/20 05:52:02;;;;;;;172.60;91.63;;;140.80;2176.00;;;;;;4892589;29;20060;-80
2021/01/20 05:55:19;;;;;;;173.50;90.22;;;140.80;2176.00;;;;;;4903318;29;20044;-78
2021/01/20 06:01:51;;;;;;;147.90;76.97;;;141.00;2176.00;;;;;;4933999;29;20054;-80
2021/01/20 06:08:42;;;;;;;154.40;83.47;;;141.10;2176.00;;;;;;4915023;29;20023;-78
2021/01/20 06:11:57;;;;;;;162.63;84.35;;;141.10;2176.00;;;;;;4911850;29;20036;-79
2021/01/20 06:15:38;;;;;;;206.50;107.18;;;140.90;2176.00;;;;;;4875946;29;20029;-78
2021/01/20 06:18:54;;;;;;;186.52;100.25;;;140.90;2176.00;;;;;;4902585;29;20036;-78
2021/01/20 06:32:32;;;;;;;306.27;169.35;;;115.70;2176.00;;;;;;4929474;29;20048;-79
2021/01/20 06:42:30;;;;;;;280.73;144.57;;;116.10;2176.00;;;;;;4969517;28;20108;-80
2021/01/20 06:46:00;;;;;;;224.82;117.78;;;115.70;2176.00;;;;;;4893808;29;20041;-80
2021/01/20 06:49:57;;;;;;;277.15;141.52;;;115.80;2176.00;;;;;;4872183;29;20036;-79
2021/01/20 06:53:33;;;;;;;294.80;164.57;;;116.00;2176.00;;;;;;4847576;29;20033;-79
2021/01/20 06:57:36;;;;;;;248.95;137.52;;;115.80;2176.00;;;;;;4894381;29;20028;-80
2021/01/20 07:00:33;;;;;;;271.15;143.40;;;115.90;2176.00;;;;;;4817781;29;20029;-81
2021/01/20 07:03:53;;;;;;;245.73;121.65;;;115.90;2176.00;;;;;;4798445;29;20036;-81
2021/01/20 07:06:42;;;;;;;399.08;198.60;;;115.90;2176.00;;;;;;4779855;30;20130;-78
2021/01/20 07:10:29;;;;;;;330.95;165.68;;;115.90;2176.00;;;;;;4791094;29;20051;-78
2021/01/20 07:14:19;;;;;;;229.13;115.57;;;115.80;2176.00;;;;;;4762823;30;20039;-78
2021/01/20 07:18:00;;;;;;;218.25;111.70;;;115.70;2176.00;;;;;;4745707;30;20032;-80
2021/01/20 07:25:12;;;;;;;271.27;144.30;;;115.50;2176.00;;;;;;4710261;30;20073;-80
2021/01/20 07:46:08;;;;;;;459.52;254.43;;;90.00;2176.00;;;;;;4693148;30;20084;-79
2021/01/20 07:49:51;;;;;;;406.30;224.80;;;90.10;2176.00;;;;;;4714856;30;20110;-78
2021/01/20 07:53:48;;;;;;;366.92;199.85;;;90.10;2176.00;;;;;;4702663;30;20029;-78
2021/01/20 07:57:11;;;;;;;398.52;243.55;;;90.00;2176.00;;;;;;4714313;30;20045;-80
2021/01/20 08:00:46;;;;;;;316.48;188.98;;;89.90;2176.00;;;;;;4763977;30;20040;-78
2021/01/20 08:04:51;;;;;;;256.60;152.43;;;89.70;2176.00;;;;;;4713009;30;20044;-79
2021/01/20 08:08:49;;;;;;;336.67;189.77;;;89.70;2176.00;;;;;;4682025;30;20095;-78
2021/01/20 08:11:55;;;;;;;405.45;218.77;;;89.80;2176.00;;;;;;4664794;30;20043;-78
2021/01/20 08:18:54;;;;;;;376.88;212.13;;;64.90;2201.60;;;;;;4710954;30;20063;-78
2021/01/20 08:22:25;;;;;;;270.45;153.25;;;64.50;2201.60;;;;;;4677195;30;20034;-78
2021/01/20 08:25:38;;;;;;;315.55;185.63;;;64.40;2201.60;;;;;;4658365;30;20046;-78
2021/01/20 08:54:31;;;;;;;512.72;322.67;;;39.00;2201.60;;;;;;4787260;30;20070;-78
2021/01/20 09:00:40;;;;;;;290.92;159.82;;;38.70;2201.60;;;;;;4969713;29;20577;-79
2021/01/20 09:03:47;;;;;;;289.70;171.10;;;39.00;2201.60;;;;;;4923869;29;20043;-78
2021/01/20 09:11:15;;;;;;;367.23;223.02;;;38.80;2201.60;;;;;;4898364;29;20056;-78
2021/01/20 09:24:42;;;;;;;389.30;229.32;;;13.70;2201.60;;;;;;4879458;29;20037;-79
2021/01/20 09:28:30;;;;;;;300.05;174.13;;;13.60;2201.60;;;;;;4851236;29;20050;-79
2021/01/20 09:31:54;;;;;;;301.73;168.50;;;13.70;2201.60;;;;;;4845047;29;20067;-79
2021/01/20 09:34:57;;;;;;;373.10;185.55;;;13.70;2201.60;;;;;;4857018;29;20094;-79
2021/01/20 09:41:18;;;;;;;275.48;149.45;;;13.40;2201.60;;;;;;4598627;27;19068277;-80
2021/01/20 09:43:51;;;;;;;273.08;155.05;;;13.30;2201.60;;;;;;5126589;27;20222;-81
2021/01/20 09:47:07;;;;;;;292.98;168.77;;;13.10;2201.60;;;;;;5174782;27;20037;-79
2021/01/20 09:50:53;;;;;;;234.82;139.27;;;13.00;2201.60;;;;;;5089350;28;20009;-79
2021/01/20 10:14:43;;;;;;;217.48;131.35;;;0.80;2201.60;;;;;;4952648;29;20060;-79
2021/01/20 10:18:16;;;;;;;205.80;125.25;;;25.60;2201.60;;;;;;4950200;29;20043;-79
2021/01/20 10:24:49;;;;;;;183.18;116.40;;;26.10;2201.60;;;;;;4892106;29;20035;-80
2021/01/20 10:27:15;;;;;;;193.20;112.18;;;26.20;2201.60;;;;;;4942131;29;20159;-80
2021/01/20 10:29:41;;;;;;;171.68;101.13;;;26.30;2201.60;;;;;;4949673;28;20044;-78
2021/01/20 10:32:07;;;;;;;161.75;103.45;;;26.50;2201.60;;;;;;5138087;27;20398;-82
2021/01/20 10:34:33;;;;;;;147.40;92.00;;;51.20;2227.20;;;;;;5132985;27;20019;-82
2021/01/20 10:36:59;;;;;;;138.50;87.35;;;51.30;2227.20;;;;;;5132102;27;20447;-83
2021/01/20 10:39:25;;;;;;;143.45;91.05;;;51.40;2227.20;;;;;;5111287;28;20036;-86
2021/01/20 10:41:54;;;;;;;203.00;132.60;;;51.40;2227.20;;;;;;5112534;28;20046;-88
2021/01/20 10:44:20;;;;;;;191.05;123.30;;;51.50;2227.20;;;;;;5112103;28;20474;-83
2021/01/20 10:46:47;;;;;;;185.55;118.03;;;51.50;2201.60;;;;;;5113354;28;20038;-87
2021/01/20 10:49:14;;;;;;;189.48;121.75;;;51.50;2201.60;;;;;;5113414;28;20054;-87
2021/01/20 10:51:41;;;;;;;211.55;131.45;;;51.70;2227.20;;;;;;5119364;28;20031;-89
2021/01/20 10:54:07;;;;;;;178.93;110.88;;;51.80;2201.60;;;;;;5099683;28;20035;-89
2021/01/20 10:56:33;;;;;;;166.13;103.40;;;51.80;2201.60;;;;;;5099538;28;20024;-87
2021/01/20 10:59:01;;;;;;;192.05;117.65;;;51.80;2176.00;;;;;;5113344;27;20031;-89
2021/01/20 11:01:27;;;;;;;208.77;129.27;;;51.80;2176.00;;;;;;5119424;27;20024;-88
2021/01/20 11:03:53;;;;;;;218.35;137.40;;;52.00;2176.00;;;;;;5118787;27;20543;-90
2021/01/20 11:06:19;;;;;;;219.40;137.13;;;52.00;2176.00;;;;;;5119848;27;20024;-88
2021/01/20 11:08:45;;;;;;;234.15;150.32;;;51.90;2150.40;;;;;;5119808;27;20027;-89
2021/01/20 11:11:12;;;;;;;238.63;146.95;;;51.90;2176.00;;;;;;5120021;27;20023;-82
2021/01/20 11:13:41;;;;;;;235.32;148.10;;;76.80;2150.40;;;;;;5119611;27;20118;-86
2021/01/20 11:16:07;;;;;;;222.38;142.57;;;52.10;2176.00;;;;;;5119298;27;20023;-85
2021/01/20 11:18:34;;;;;;;215.90;137.10;;;52.10;2150.40;;;;;;5119530;27;20023;-86
2021/01/20 11:21:00;;;;;;;232.63;150.45;;;76.80;2124.80;;;;;;5119524;27;20037;-86
2021/01/20 11:23:27;;;;;;;229.55;150.82;;;76.90;2099.20;;;;;;5119267;27;20047;-85
2021/01/20 11:25:54;;;;;;;213.90;140.05;;;76.90;2099.20;;;;;;5119209;27;20030;-86
2021/01/20 11:28:20;;;;;;;152.45;103.60;;;76.90;2099.20;;;;;;5119302;27;20051;-87
2021/01/20 11:30:46;;;;;;;158.82;108.72;;;76.90;2048.00;;;;;;5109879;28;20027;-87
2021/01/20 11:33:12;;;;;;;141.05;94.10;;;76.90;2073.60;;;;;;5098952;28;20023;-87
2021/01/20 11:35:39;;;;;;;146.63;99.45;;;76.90;2073.60;;;;;;5098032;28;20031;-85
2021/01/20 11:38:06;;;;;;;144.18;95.07;;;77.00;2073.60;;;;;;5098568;28;20043;-86
2021/01/20 11:40:33;;;;;;;167.52;108.55;;;77.00;2048.00;;;;;;5098336;28;20023;-86
2021/01/20 11:43:01;;;;;;;210.07;127.18;;;77.10;2073.60;;;;;;5099174;28;20030;-85
2021/01/20 11:45:31;;;;;;;187.05;114.53;;;102.90;2073.60;;;;;;5098613;28;20024;-87
2021/01/20 11:47:57;;;;;;;171.15;104.47;;;77.20;2073.60;;;;;;5099902;28;20073;-83
2021/01/20 11:50:23;;;;;;;176.65;110.40;;;77.20;2073.60;;;;;;5098499;28;20028;-84
2021/01/20 11:52:51;;;;;;;178.00;113.38;;;77.20;2073.60;;;;;;5098206;28;20024;-82
2021/01/20 11:55:18;;;;;;;170.65;109.10;;;77.30;2073.60;;;;;;5098381;28;20028;-85
2021/01/20 11:57:44;;;;;;;158.18;104.60;;;52.10;2099.20;;;;;;5097937;28;20024;-88
2021/01/20 12:00:11;;;;;;;181.90;107.80;;;77.30;2099.20;;;;;;5097679;28;20026;-84
2021/01/20 12:02:38;;;;;;;189.38;115.80;;;77.30;2073.60;;;;;;5096837;28;20020;-86
2021/01/20 12:05:11;;;;;;;177.45;117.07;;;77.30;2073.60;;;;;;5097541;28;20046;-88
2021/01/20 12:07:38;;;;;;;155.75;101.40;;;77.30;2099.20;;;;;;5098115;28;20035;-84
2021/01/20 12:10:06;;;;;;;143.45;96.43;;;77.30;2099.20;;;;;;5097959;28;20417;-83
2021/01/20 12:12:32;;;;;;;152.90;102.10;;;77.40;2099.20;;;;;;5097741;28;20027;-83
2021/01/20 12:14:59;;;;;;;157.18;104.72;;;102.40;2099.20;;;;;;5097670;28;20030;-86
2021/01/20 12:17:24;;;;;;;183.25;114.97;;;77.40;2099.20;;;;;;5122228;27;20023;-84
2021/01/20 12:19:50;;;;;;;178.25;117.30;;;77.50;2099.20;;;;;;5120837;27;20071;-84
2021/01/20 12:22:17;;;;;;;207.15;134.30;;;77.50;2124.80;;;;;;5120888;27;20156;-83
2021/01/20 12:24:42;;;;;;;224.15;141.85;;;77.50;2124.80;;;;;;5118837;27;20024;-87
2021/01/20 12:27:08;;;;;;;245.65;150.93;;;77.50;2124.80;;;;;;5118348;27;20027;-85
2021/01/20 12:29:34;;;;;;;248.82;150.15;;;77.50;2124.80;;;;;;5117983;27;20050;-89
2021/01/20 12:32:00;;;;;;;232.93;144.43;;;77.50;2124.80;;;;;;5118288;27;20023;-89
2021/01/20 12:34:26;;;;;;;244.10;149.90;;;77.70;2124.80;;;;;;5117705;27;20019;-87
2021/01/20 12:36:51;;;;;;;210.68;130.93;;;77.60;2124.80;;;;;;5118259;27;20023;-87
2021/01/20 12:39:17;;;;;;;181.88;111.78;;;77.70;2099.20;;;;;;5117999;27;20071;-87
2021/01/20 12:41:43;;;;;;;170.05;103.72;;;77.70;2099.20;;;;;;5125155;27;20075;-90
2021/01/20 12:44:09;;;;;;;163.27;97.35;;;77.70;2099.20;;;;;;5097937;28;20024;-89
2021/01/20 12:46:35;;;;;;;162.93;102.25;;;77.70;2099.20;;;;;;5097072;28;20064;-88
2021/01/20 12:49:01;;;;;;;145.50;94.63;;;77.70;2099.20;;;;;;5115424;28;20379;-87
2021/01/20 12:51:26;;;;;;;128.90;84.97;;;77.70;2099.20;;;;;;5115552;28;20028;-88
2021/01/20 12:53:52;;;;;;;133.38;89.57;;;77.70;2073.60;;;;;;5097009;28;20020;-87
2021/01/20 12:56:18;;;;;;;142.00;99.22;;;102.40;2099.20;;;;;;5097433;28;20028;-89
2021/01/20 12:58:44;;;;;;;137.73;94.13;;;102.40;2099.20;;;;;;5098126;28;20467;-90
2021/01/20 13:01:10;;;;;;;188.95;130.43;;;102.40;2099.20;;;;;;5097094;28;20028;-89
2021/01/20 13:03:36;;;;;;;168.93;113.50;;;102.40;2099.20;;;;;;5115534;28;20028;-88
2021/01/20 13:06:01;;;;;;;214.48;144.27;;;102.40;2099.20;;;;;;5097423;28;20032;-90
2021/01/20 13:08:27;;;;;;;259.70;176.32;;;102.40;2099.20;;;;;;5097044;28;20023;-88
2021/01/20 13:10:53;;;;;;;351.88;233.60;;;102.40;2099.20;;;;;;5097489;28;20023;-92
2021/01/20 13:13:19;;;;;;;297.33;197.52;;;102.40;2099.20;;;;;;5097069;28;20024;-90
2021/01/20 13:15:49;;;;;;;293.45;195.35;;;102.40;2073.60;;;;;;5097201;28;20035;-88
2021/01/20 13:18:14;;;;;;;273.27;190.98;;;102.40;2099.20;;;;;;5097170;28;20027;-88
2021/01/20 13:20:40;;;;;;;264.35;182.45;;;102.50;2099.20;;;;;;5097366;28;20035;-88
2021/01/20 13:23:06;;;;;;;269.67;185.15;;;102.90;2073.60;;;;;;5096903;28;20023;-87
2021/01/20 13:25:32;;;;;;;263.13;183.05;;;128.10;2099.20;;;;;;5097123;28;20030;-88
2021/01/20 13:27:58;;;;;;;235.00;160.38;;;128.50;2048.00;;;;;;5115445;28;20055;-87
2021/01/20 13:30:24;;;;;;;230.73;155.48;;;128.80;1920.00;;;;;;5096962;28;20118;-88
2021/01/20 13:32:49;;;;;;;256.02;173.95;;;128.90;1945.60;;;;;;5097078;28;20027;-88
2021/01/20 13:35:15;;;;;;;224.85;156.35;;;128.90;1894.40;;;;;;5096909;28;20027;-89
2021/01/20 13:37:42;;;;;;;253.23;175.60;;;128.90;1920.00;;;;;;5096805;28;20020;-88
2021/01/20 13:40:08;;;;;;;262.65;181.77;;;128.90;1945.60;;;;;;5115278;28;20074;-89
2021/01/20 13:42:34;;;;;;;276.30;195.20;;;128.90;1971.20;;;;;;5097042;28;20043;-89
2021/01/20 13:45:00;;;;;;;249.85;172.70;;;128.90;1971.20;;;;;;5115046;28;20426;-89
2021/01/20 13:47:26;;;;;;;246.23;167.38;;;128.70;1971.20;;;;;;5115241;28;20107;-89
2021/01/20 13:49:52;;;;;;;241.20;166.98;;;128.60;1996.80;;;;;;5097259;28;20030;-88
2021/01/20 13:52:17;;;;;;;246.15;173.27;;;128.70;1996.80;;;;;;5097674;28;20446;-88
2021/01/20 13:54:43;;;;;;;274.83;191.32;;;128.70;1996.80;;;;;;5101814;28;20024;-87
2021/01/20 13:57:09;;;;;;;288.08;203.68;;;128.70;1996.80;;;;;;5101930;28;20051;-88
2021/01/20 13:59:36;;;;;;;272.40;191.55;;;128.90;1996.80;;;;;;5098685;28;20177;-87
2021/01/20 14:02:03;;;;;;;268.98;186.18;;;153.70;1996.80;;;;;;5096728;28;20482;-87
2021/01/20 14:04:30;;;;;;;287.15;202.05;;;153.90;1996.80;;;;;;5096560;28;20030;-88
2021/01/20 14:06:58;;;;;;;293.63;201.82;;;154.10;1945.60;;;;;;5096818;28;20056;-87
2021/01/20 14:09:24;;;;;;;297.90;211.43;;;154.10;1971.20;;;;;;5096698;28;20027;-87
2021/01/20 14:11:50;;;;;;;302.55;208.85;;;154.40;1920.00;;;;;;5096611;28;20047;-87
2021/01/20 14:14:16;;;;;;;308.58;217.18;;;154.50;1945.60;;;;;;5096728;28;20024;-87
2021/01/20 14:16:42;;;;;;;298.98;202.45;;;179.20;1894.40;;;;;;5096532;28;20455;-86
2021/01/20 14:19:07;;;;;;;296.08;197.52;;;179.30;1894.40;;;;;;5096329;28;20036;-87
2021/01/20 14:21:33;;;;;;;296.88;203.50;;;179.30;1894.40;;;;;;5096458;28;20027;-85
2021/01/20 14:23:59;;;;;;;292.65;203.32;;;179.40;1894.40;;;;;;5096709;28;20024;-88
2021/01/20 14:26:26;;;;;;;318.60;217.88;;;179.40;1894.40;;;;;;5097193;28;20371;-88
2021/01/20 14:28:52;;;;;;;294.77;202.20;;;179.30;1894.40;;;;;;5088595;28;20067;-88
2021/01/20 14:31:21;;;;;;;271.98;187.38;;;179.30;1920.00;;;;;;5101930;28;20183;-84
2021/01/20 14:33:47;;;;;;;262.63;178.15;;;179.20;1920.00;;;;;;5079427;28;20081;-83
2021/01/20 14:36:14;;;;;;;311.60;205.73;;;154.50;1945.60;;;;;;5079428;28;20028;-88
2021/01/20 14:38:41;;;;;;;321.10;214.75;;;154.20;1945.60;;;;;;5080288;28;20071;-88
2021/01/20 14:41:11;;;;;;;386.55;260.52;;;153.90;1996.80;;;;;;5079483;28;20044;-87
2021/01/20 14:43:38;;;;;;;398.10;264.45;;;153.60;2022.40;;;;;;5080307;28;20031;-88
2021/01/20 14:46:05;;;;;;;412.08;275.02;;;128.80;2048.00;;;;;;5093922;28;20027;-86
2021/01/20 14:48:31;;;;;;;369.27;252.77;;;128.60;2073.60;;;;;;5091631;28;20027;-86
2021/01/20 14:50:57;;;;;;;278.77;192.50;;;128.40;2099.20;;;;;;5134922;27;20023;-87
2021/01/20 14:53:23;;;;;;;256.45;170.82;;;128.30;2124.80;;;;;;5107449;27;20460;-86
2021/01/20 14:55:49;;;;;;;245.52;158.55;;;128.20;2124.80;;;;;;5116633;27;20051;-86
2021/01/20 14:58:14;;;;;;;270.85;175.70;;;128.10;2150.40;;;;;;5109403;27;20027;-86
2021/01/20 15:00:40;;;;;;;285.52;178.40;;;103.30;2124.80;;;;;;5124224;27;20459;-86
2021/01/20 15:03:07;;;;;;;272.77;177.45;;;103.20;2150.40;;;;;;5114575;27;20019;-83
2021/01/20 15:05:33;;;;;;;281.88;170.60;;;103.10;2176.00;;;;;;5115400;27;20031;-86
2021/01/20 15:07:59;;;;;;;306.17;174.13;;;103.00;2176.00;;;;;;5118493;27;20019;-85
2021/01/20 15:10:24;;;;;;;226.10;143.23;;;103.00;2201.60;;;;;;5118392;27;20024;-88
2021/01/20 15:12:50;;;;;;;229.05;142.63;;;102.90;2201.60;;;;;;5118715;27;20029;-88
2021/01/20 15:15:17;;;;;;;253.18;154.90;;;102.80;2201.60;;;;;;5119204;27;20034;-89
2021/01/20 15:17:43;;;;;;;239.82;150.50;;;102.70;2227.20;;;;;;5119509;27;20028;-88
2021/01/20 15:20:10;;;;;;;256.58;155.10;;;102.80;2227.20;;;;;;5118678;27;20100;-87
2021/01/20 15:22:35;;;;;;;262.33;158.15;;;102.50;2227.20;;;;;;5119037;27;20023;-87
2021/01/20 15:25:02;;;;;;;313.40;196.48;;;102.40;2227.20;;;;;;5118943;27;20029;-87
2021/01/20 15:27:28;;;;;;;289.92;183.70;;;102.40;2227.20;;;;;;5118397;27;20031;-85
2021/01/20 15:29:54;;;;;;;314.35;191.98;;;102.40;2227.20;;;;;;5118364;27;20592;-82
2021/01/20 15:32:21;;;;;;;454.05;278.95;;;77.70;2227.20;;;;;;5112355;27;20059;-87
2021/01/20 15:34:47;;;;;;;438.13;275.35;;;77.60;2227.20;;;;;;5113322;27;20102;-83
2021/01/20 15:37:13;;;;;;;454.55;280.38;;;77.50;2227.20;;;;;;5117364;27;20546;-85
2021/01/20 15:39:39;;;;;;;468.10;294.98;;;77.40;2227.20;;;;;;5116819;27;20118;-85
2021/01/20 15:42:05;;;;;;;417.67;261.83;;;77.30;2227.20;;;;;;5117307;27;20126;-84
2021/01/20 15:44:32;;;;;;;416.42;263.02;;;77.20;2227.20;;;;;;5118506;27;20486;-88
2021/01/20 15:46:58;;;;;;;401.63;247.07;;;77.20;2227.20;;;;;;5119074;27;20023;-85
2021/01/20 15:49:24;;;;;;;543.90;341.70;;;77.10;2227.20;;;;;;5118574;27;20042;-83
2021/01/20 15:51:50;;;;;;;587.35;373.05;;;76.90;2227.20;;;;;;5119005;27;20019;-86
2021/01/20 15:54:16;;;;;;;547.13;350.08;;;76.90;2227.20;;;;;;5118877;27;20430;-82
2021/01/20 15:56:42;;;;;;;549.67;346.35;;;76.90;2227.20;;;;;;5118691;27;20023;-89
2021/01/20 15:59:08;;;;;;;364.38;226.60;;;76.90;2227.20;;;;;;5118728;27;20042;-83
2021/01/20 16:01:34;;;;;;;419.15;260.30;;;76.80;2227.20;;;;;;5118800;27;20027;-85
2021/01/20 16:04:12;;;;;;;495.85;284.52;;;52.10;2227.20;;;;;;5118634;27;20068;-87
2021/01/20 16:06:45;;;;;;;453.65;256.27;;;52.10;2227.20;;;;;;5119397;27;20039;-85
2021/01/20 16:09:16;;;;;;;363.88;201.32;;;52.00;2227.20;;;;;;5119169;27;20519;-87
2021/01/20 16:11:46;;;;;;;226.63;135.30;;;51.80;2227.20;;;;;;5118649;27;20035;-86
2021/01/20 16:14:13;;;;;;;266.10;156.73;;;51.90;2227.20;;;;;;5118800;27;20467;-87
2021/01/20 16:16:40;;;;;;;319.98;192.88;;;51.70;2227.20;;;;;;5118841;27;20023;-87
2021/01/20 16:19:06;;;;;;;378.05;219.32;;;51.80;2227.20;;;;;;5118208;27;20042;-86
2021/01/20 16:21:32;;;;;;;384.40;218.40;;;51.70;2227.20;;;;;;5118391;27;20415;-87
2021/01/20 16:23:59;;;;;;;399.65;216.50;;;51.80;2227.20;;;;;;5118285;27;20038;-85
2021/01/20 16:26:25;;;;;;;343.65;201.20;;;51.80;2227.20;;;;;;5117942;27;20019;-85
2021/01/20 16:28:52;;;;;;;409.83;238.43;;;51.60;2227.20;;;;;;5118623;27;20031;-87
2021/01/20 16:31:19;;;;;;;411.73;236.60;;;51.30;2227.20;;;;;;5117094;27;20046;-85
2021/01/20 16:33:45;;;;;;;521.85;297.75;;;52.00;2227.20;;;;;;5119137;27;20066;-87
2021/01/20 16:36:12;;;;;;;457.17;252.70;;;51.40;2227.20;;;;;;5117916;27;20051;-88
2021/01/20 16:38:38;;;;;;;433.13;232.85;;;51.50;2227.20;;;;;;5117910;27;20386;-87
2021/01/20 16:41:04;;;;;;;378.35;213.07;;;51.40;2227.20;;;;;;5117638;27;20047;-87
2021/01/20 16:43:31;;;;;;;457.50;260.08;;;51.30;2227.20;;;;;;5117892;27;20102;-85
2021/01/20 16:45:57;;;;;;;352.15;193.90;;;51.40;2227.20;;;;;;5100494;27;20122;-88
2021/01/20 16:48:23;;;;;;;354.80;207.95;;;51.50;2227.20;;;;;;5117160;27;20019;-86
2021/01/20 16:50:48;;;;;;;383.95;217.45;;;51.30;2227.20;;;;;;5117597;27;20125;-87
2021/01/20 16:53:14;;;;;;;429.85;239.70;;;51.30;2227.20;;;;;;5117889;27;20026;-86
2021/01/20 16:55:44;;;;;;;441.15;253.30;;;51.30;2227.20;;;;;;5117616;27;20026;-86
2021/01/20 16:58:12;;;;;;;423.67;244.18;;;51.30;2227.20;;;;;;5117885;27;20026;-87
2021/01/20 17:00:39;;;;;;;506.17;296.90;;;51.20;2227.20;;;;;;5116450;27;20074;-88
2021/01/20 17:03:05;;;;;;;449.17;265.95;;;51.20;2227.20;;;;;;5108357;27;20027;-87
2021/01/20 17:05:32;;;;;;;368.08;218.95;;;51.20;2227.20;;;;;;5102887;28;20024;-83
2021/01/20 17:07:58;;;;;;;458.83;269.65;;;26.50;2201.60;;;;;;5096567;28;20463;-88
2021/01/20 17:10:26;;;;;;;630.50;397.70;;;26.40;2201.60;;;;;;5097416;28;20034;-85
2021/01/20 17:12:53;;;;;;;647.83;410.30;;;26.40;2201.60;;;;;;5098181;28;20560;-83
2021/01/20 17:15:21;;;;;;;722.58;449.50;;;26.30;2201.60;;;;;;5100483;28;20033;-82
2021/01/20 17:17:46;;;;;;;741.35;468.00;;;26.40;2201.60;;;;;;5099610;28;20031;-84
2021/01/20 17:20:15;;;;;;;746.40;476.80;;;26.40;2201.60;;;;;;5114206;27;20043;-83
2021/01/20 17:22:41;;;;;;;733.38;458.92;;;26.40;2201.60;;;;;;5114021;27;20030;-86
2021/01/20 17:25:07;;;;;;;791.75;501.42;;;26.40;2201.60;;;;;;5102073;28;20118;-84
2021/01/20 17:27:33;;;;;;;855.45;531.72;;;26.50;2201.60;;;;;;5100707;27;20026;-80
2021/01/20 17:29:59;;;;;;;995.17;583.63;;;26.20;2201.60;;;;;;5115341;27;20382;-84
2021/01/20 17:32:26;;;;;;;945.55;555.53;;;26.20;2201.60;;;;;;5115722;28;20386;-83
2021/01/20 17:34:53;;;;;;;905.20;543.67;;;26.20;2201.60;;;;;;5111114;27;20020;-83
2021/01/20 17:37:19;;;;;;;843.78;524.10;;;26.30;2201.60;;;;;;5115869;28;20027;-82
2021/01/20 17:39:47;;;;;;;840.40;519.47;;;26.30;2201.60;;;;;;5115267;28;20043;-82
2021/01/20 17:42:13;;;;;;;872.25;560.38;;;26.30;2201.60;;;;;;5116071;28;20127;-86
2021/01/20 17:44:39;;;;;;;902.67;573.33;;;26.20;2201.60;;;;;;5116785;28;20072;-84
2021/01/20 17:47:05;;;;;;;952.38;599.47;;;26.20;2201.60;;;;;;5116603;28;20027;-88
2021/01/20 17:49:31;;;;;;;924.22;585.28;;;26.10;2201.60;;;;;;5116422;28;20023;-85
2021/01/20 17:51:57;;;;;;;844.15;546.92;;;26.20;2201.60;;;;;;5116504;28;20034;-87
2021/01/20 17:54:25;;;;;;;979.70;591.92;;;26.00;2201.60;;;;;;5116292;28;20027;-87
2021/01/20 17:56:50;;;;;;;997.78;592.78;;;26.00;2201.60;;;;;;5116364;28;20106;-84
2021/01/20 17:59:16;;;;;;;1039.40;623.67;;;26.10;2201.60;;;;;;5116357;27;20168;-86
2021/01/20 18:01:42;;;;;;;1030.03;632.40;;;26.00;2201.60;;;;;;5118925;27;20046;-84
2021/01/20 18:04:09;;;;;;;1037.20;632.55;;;26.00;2201.60;;;;;;5120760;27;20123;-89
2021/01/20 18:06:36;;;;;;;1091.13;673.28;;;26.10;2201.60;;;;;;5120804;27;20027;-85
2021/01/20 18:09:02;;;;;;;1144.47;697.22;;;26.00;2201.60;;;;;;5120240;27;20366;-86